sensor_id;sensor_type;location;lat;lon;timestamp;pressure;altitude;pressure_sealevel;temperature;humidity
49729;BME280;66333;49.798;10.968;2023-02-12T00:01:47;100019.06;;;8.12;59.05
49729;BME280;66333;49.798;10.968;2023-02-12T00:04:15;100025.28;;;8.09;59.10
49729;BME280;66333;49.798;10.968;2023-02-12T00:06:43;100022.69;;;8.09;59.12
49729;BME280;66333;49.798;10.968;2023-02-12T00:09:10;100025.38;;;8.08;59.01
49729;BME280;66333;49.798;10.968;2023-02-12T00:11:41;100014.94;;;8.08;59.21
49729;BME280;66333;49.798;10.968;2023-02-12T00:14:11;100022.97;;;8.05;59.43
49729;BME280;66333;49.798;10.968;2023-02-12T00:16:41;100022.19;;;8.03;59.20
49729;BME280;66333;49.798;10.968;2023-02-12T00:19:09;100024.81;;;8.03;59.48
49729;BME280;66333;49.798;10.968;2023-02-12T00:21:36;100030.03;;;8.03;59.17
49729;BME280;66333;49.798;10.968;2023-02-12T00:24:06;100032.09;;;7.98;59.27
49729;BME280;66333;49.798;10.968;2023-02-12T00:26:35;100028.56;;;7.99;59.52
49729;BME280;66333;49.798;10.968;2023-02-12T00:29:02;100030.31;;;7.98;59.33
49729;BME280;66333;49.798;10.968;2023-02-12T00:31:34;100032.00;;;7.99;59.38
49729;BME280;66333;49.798;10.968;2023-02-12T00:34:01;100030.44;;;7.97;59.29
49729;BME280;66333;49.798;10.968;2023-02-12T00:36:30;100039.94;;;7.98;59.37
49729;BME280;66333;49.798;10.968;2023-02-12T00:38:58;100039.19;;;7.96;59.41
49729;BME280;66333;49.798;10.968;2023-02-12T00:41:28;100037.31;;;7.98;59.13
49729;BME280;66333;49.798;10.968;2023-02-12T00:43:58;100041.78;;;7.96;59.54
49729;BME280;66333;49.798;10.968;2023-02-12T00:46:28;100040.19;;;7.93;59.50
49729;BME280;66333;49.798;10.968;2023-02-12T00:49:07;100043.72;;;7.92;59.67
49729;BME280;66333;49.798;10.968;2023-02-12T00:51:35;100038.72;;;7.89;59.49
49729;BME280;66333;49.798;10.968;2023-02-12T00:54:02;100032.66;;;7.88;59.68
49729;BME280;66333;49.798;10.968;2023-02-12T00:56:32;100028.28;;;7.89;59.75
49729;BME280;66333;49.798;10.968;2023-02-12T00:58:59;100029.31;;;7.86;59.70
49729;BME280;66333;49.798;10.968;2023-02-12T01:01:27;100034.59;;;7.85;59.45
49729;BME280;66333;49.798;10.968;2023-02-12T01:03:58;100033.00;;;7.82;59.57
49729;BME280;66333;49.798;10.968;2023-02-12T01:06:26;100033.00;;;7.82;59.62
49729;BME280;66333;49.798;10.968;2023-02-12T01:08:53;100029.66;;;7.80;59.77
49729;BME280;66333;49.798;10.968;2023-02-12T01:11:21;100027.97;;;7.79;59.66
49729;BME280;66333;49.798;10.968;2023-02-12T01:13:50;100029.66;;;7.80;59.88
49729;BME280;66333;49.798;10.968;2023-02-12T01:16:22;100034.88;;;7.80;59.61
49729;BME280;66333;49.798;10.968;2023-02-12T01:19:03;100029.91;;;7.76;59.93
49729;BME280;66333;49.798;10.968;2023-02-12T01:21:33;100042.13;;;7.75;59.94
49729;BME280;66333;49.798;10.968;2023-02-12T01:24:04;100031.88;;;7.72;59.80
49729;BME280;66333;49.798;10.968;2023-02-12T01:26:32;100030.19;;;7.71;60.05
49729;BME280;66333;49.798;10.968;2023-02-12T01:29:01;100031.88;;;7.72;60.01
49729;BME280;66333;49.798;10.968;2023-02-12T01:31:29;100032.06;;;7.69;60.09
49729;BME280;66333;49.798;10.968;2023-02-12T01:34:00;100021.78;;;7.66;60.10
49729;BME280;66333;49.798;10.968;2023-02-12T01:36:35;100026.19;;;7.66;60.43
49729;BME280;66333;49.798;10.968;2023-02-12T01:39:03;100034.94;;;7.64;60.23
49729;BME280;66333;49.798;10.968;2023-02-12T01:41:34;100034.94;;;7.64;60.11
49729;BME280;66333;49.798;10.968;2023-02-12T01:44:07;100028.88;;;7.64;60.00
49729;BME280;66333;49.798;10.968;2023-02-12T01:46:38;100032.22;;;7.66;60.12
49729;BME280;66333;49.798;10.968;2023-02-12T01:49:09;100030.75;;;7.62;60.16
49729;BME280;66333;49.798;10.968;2023-02-12T01:51:57;100032.53;;;7.61;60.34
49729;BME280;66333;49.798;10.968;2023-02-12T01:54:29;100029.06;;;7.61;60.30
49729;BME280;66333;49.798;10.968;2023-02-12T01:56:59;100026.53;;;7.59;60.24
49729;BME280;66333;49.798;10.968;2023-02-12T01:59:27;100025.69;;;7.59;60.28
49729;BME280;66333;49.798;10.968;2023-02-12T02:01:56;100024.00;;;7.58;60.35
49729;BME280;66333;49.798;10.968;2023-02-12T02:04:26;100020.66;;;7.56;60.25
49729;BME280;66333;49.798;10.968;2023-02-12T02:07:03;100029.41;;;7.55;60.44
49729;BME280;66333;49.798;10.968;2023-02-12T02:09:34;100031.28;;;7.53;60.48
49729;BME280;66333;49.798;10.968;2023-02-12T02:12:03;100022.53;;;7.54;60.41
49729;BME280;66333;49.798;10.968;2023-02-12T02:14:50;100033.13;;;7.51;60.34
49729;BME280;66333;49.798;10.968;2023-02-12T02:17:33;100023.63;;;7.50;60.25
49729;BME280;66333;49.798;10.968;2023-02-12T02:20:41;100021.94;;;7.49;60.68
49729;BME280;66333;49.798;10.968;2023-02-12T02:23:55;100026.22;;;7.50;60.33
49729;BME280;66333;49.798;10.968;2023-02-12T02:26:53;100023.72;;;7.48;60.61
49729;BME280;66333;49.798;10.968;2023-02-12T02:32:37;100029.97;;;7.46;60.66
49729;BME280;66333;49.798;10.968;2023-02-12T02:35:11;100029.97;;;7.46;60.67
49729;BME280;66333;49.798;10.968;2023-02-12T02:37:49;100024.00;;;7.44;60.60
49729;BME280;66333;49.798;10.968;2023-02-12T02:40:19;100029.22;;;7.44;60.46
49729;BME280;66333;49.798;10.968;2023-02-12T02:42:52;100029.28;;;7.42;60.63
49729;BME280;66333;49.798;10.968;2023-02-12T02:45:25;100030.31;;;7.40;60.55
49729;BME280;66333;49.798;10.968;2023-02-12T02:48:11;100031.97;;;7.41;60.66
49729;BME280;66333;49.798;10.968;2023-02-12T02:50:45;100035.72;;;7.37;60.67
49729;BME280;66333;49.798;10.968;2023-02-12T02:53:38;100032.16;;;7.38;60.66
49729;BME280;66333;49.798;10.968;2023-02-12T02:56:15;100035.88;;;7.33;60.90
49729;BME280;66333;49.798;10.968;2023-02-12T02:58:50;100030.50;;;7.37;60.84
49729;BME280;66333;49.798;10.968;2023-02-12T03:01:23;100037.53;;;7.34;60.50
49729;BME280;66333;49.798;10.968;2023-02-12T03:04:00;100038.41;;;7.35;60.77
49729;BME280;66333;49.798;10.968;2023-02-12T03:06:35;100044.72;;;7.31;60.93
49729;BME280;66333;49.798;10.968;2023-02-12T03:09:14;100034.38;;;7.29;60.95
49729;BME280;66333;49.798;10.968;2023-02-12T03:11:46;100042.94;;;7.31;60.88
49729;BME280;66333;49.798;10.968;2023-02-12T03:14:19;100037.91;;;7.28;61.06
49729;BME280;66333;49.798;10.968;2023-02-12T03:16:53;100047.50;;;7.28;60.89
49729;BME280;66333;49.798;10.968;2023-02-12T03:19:31;100044.13;;;7.26;60.90
49729;BME280;66333;49.798;10.968;2023-02-12T03:22:04;100052.81;;;7.26;61.01
49729;BME280;66333;49.798;10.968;2023-02-12T03:24:38;100058.09;;;7.25;61.11
49729;BME280;66333;49.798;10.968;2023-02-12T03:27:12;100052.03;;;7.24;60.80
49729;BME280;66333;49.798;10.968;2023-02-12T03:29:43;100051.94;;;7.26;60.98
49729;BME280;66333;49.798;10.968;2023-02-12T03:32:21;100058.19;;;7.23;60.94
49729;BME280;66333;49.798;10.968;2023-02-12T03:35:07;100064.31;;;7.22;60.86
49729;BME280;66333;49.798;10.968;2023-02-12T03:37:38;100055.75;;;7.20;61.10
49729;BME280;66333;49.798;10.968;2023-02-12T03:40:15;100061.81;;;7.21;61.22
49729;BME280;66333;49.798;10.968;2023-02-12T03:42:52;100060.97;;;7.20;61.07
49729;BME280;66333;49.798;10.968;2023-02-12T03:45:31;100056.75;;;7.18;61.20
49729;BME280;66333;49.798;10.968;2023-02-12T03:48:08;100065.50;;;7.17;61.01
49729;BME280;66333;49.798;10.968;2023-02-12T03:50:45;100055.91;;;7.17;61.16
49729;BME280;66333;49.798;10.968;2023-02-12T03:53:15;100061.22;;;7.16;61.15
49729;BME280;66333;49.798;10.968;2023-02-12T03:55:46;100062.97;;;7.15;61.02
49729;BME280;66333;49.798;10.968;2023-02-12T03:58:19;100061.13;;;7.17;61.05
49729;BME280;66333;49.798;10.968;2023-02-12T04:00:48;100063.91;;;7.14;61.26
49729;BME280;66333;49.798;10.968;2023-02-12T04:03:17;100058.69;;;7.14;61.24
49729;BME280;66333;49.798;10.968;2023-02-12T04:05:59;100057.97;;;7.12;61.28
49729;BME280;66333;49.798;10.968;2023-02-12T04:08:30;100061.50;;;7.11;61.23
49729;BME280;66333;49.798;10.968;2023-02-12T04:11:05;100075.44;;;7.10;61.14
49729;BME280;66333;49.798;10.968;2023-02-12T04:13:41;100067.69;;;7.08;61.27
49729;BME280;66333;49.798;10.968;2023-02-12T04:16:21;100065.88;;;7.11;61.07
49729;BME280;66333;49.798;10.968;2023-02-12T04:18:52;100068.53;;;7.09;61.32
49729;BME280;66333;49.798;10.968;2023-02-12T04:21:35;100071.13;;;7.09;61.29
49729;BME280;66333;49.798;10.968;2023-02-12T04:24:14;100081.66;;;7.07;61.25
49729;BME280;66333;49.798;10.968;2023-02-12T04:26:59;100079.16;;;7.06;61.17
49729;BME280;66333;49.798;10.968;2023-02-12T04:29:34;100081.75;;;7.06;61.23
49729;BME280;66333;49.798;10.968;2023-02-12T04:32:13;100070.56;;;7.04;61.30
49729;BME280;66333;49.798;10.968;2023-02-12T04:34:49;100088.72;;;7.05;61.29
49729;BME280;66333;49.798;10.968;2023-02-12T04:37:30;100071.31;;;7.06;61.58
49729;BME280;66333;49.798;10.968;2023-02-12T04:40:02;100080.25;;;7.02;61.41
49729;BME280;66333;49.798;10.968;2023-02-12T04:42:30;100081.09;;;7.02;61.55
49729;BME280;66333;49.798;10.968;2023-02-12T04:44:58;100083.84;;;6.99;61.41
49729;BME280;66333;49.798;10.968;2023-02-12T04:47:34;100088.91;;;7.02;61.56
49729;BME280;66333;49.798;10.968;2023-02-12T04:50:02;100088.91;;;7.02;61.40
49729;BME280;66333;49.798;10.968;2023-02-12T04:52:31;100089.91;;;7.00;61.62
49729;BME280;66333;49.798;10.968;2023-02-12T04:54:59;100096.03;;;6.99;61.59
49729;BME280;66333;49.798;10.968;2023-02-12T04:57:28;100088.22;;;6.99;61.51
49729;BME280;66333;49.798;10.968;2023-02-12T04:59:54;100091.75;;;6.98;61.56
49729;BME280;66333;49.798;10.968;2023-02-12T05:02:22;100091.75;;;6.98;61.28
49729;BME280;66333;49.798;10.968;2023-02-12T05:04:49;100091.75;;;6.98;61.45
49729;BME280;66333;49.798;10.968;2023-02-12T05:07:19;100091.00;;;6.96;61.65
49729;BME280;66333;49.798;10.968;2023-02-12T05:09:48;100091.00;;;6.96;61.72
49729;BME280;66333;49.798;10.968;2023-02-12T05:12:18;100098.81;;;6.96;61.60
49729;BME280;66333;49.798;10.968;2023-02-12T05:14:45;100098.81;;;6.96;61.56
49729;BME280;66333;49.798;10.968;2023-02-12T05:17:16;100097.28;;;6.92;61.69
49729;BME280;66333;49.798;10.968;2023-02-12T05:19:46;100097.16;;;6.95;61.54
49729;BME280;66333;49.798;10.968;2023-02-12T05:22:14;100097.28;;;6.92;61.50
49729;BME280;66333;49.798;10.968;2023-02-12T05:24:42;100104.44;;;6.88;61.90
49729;BME280;66333;49.798;10.968;2023-02-12T05:27:13;100107.81;;;6.90;61.71
49729;BME280;66333;49.798;10.968;2023-02-12T05:29:41;100111.44;;;6.88;61.71
49729;BME280;66333;49.798;10.968;2023-02-12T05:32:08;100113.19;;;6.87;61.79
49729;BME280;66333;49.798;10.968;2023-02-12T05:34:36;100106.22;;;6.88;61.88
49729;BME280;66333;49.798;10.968;2023-02-12T05:37:04;100111.50;;;6.86;61.87
49729;BME280;66333;49.798;10.968;2023-02-12T05:39:34;100114.03;;;6.88;61.96
49729;BME280;66333;49.798;10.968;2023-02-12T05:42:04;100111.44;;;6.88;61.74
49729;BME280;66333;49.798;10.968;2023-02-12T05:44:34;100109.75;;;6.87;61.92
49729;BME280;66333;49.798;10.968;2023-02-12T05:47:02;100111.59;;;6.85;61.80
49729;BME280;66333;49.798;10.968;2023-02-12T05:49:32;100112.44;;;6.85;61.81
49729;BME280;66333;49.798;10.968;2023-02-12T05:51:58;100118.63;;;6.83;61.88
49729;BME280;66333;49.798;10.968;2023-02-12T05:54:26;100122.97;;;6.84;61.89
49729;BME280;66333;49.798;10.968;2023-02-12T05:56:54;100119.56;;;6.82;61.92
49729;BME280;66333;49.798;10.968;2023-02-12T05:59:22;100124.78;;;6.82;61.79
49729;BME280;66333;49.798;10.968;2023-02-12T06:01:52;100125.72;;;6.81;61.87
49729;BME280;66333;49.798;10.968;2023-02-12T06:04:22;100132.59;;;6.82;61.89
49729;BME280;66333;49.798;10.968;2023-02-12T06:06:54;100130.91;;;6.81;61.76
49729;BME280;66333;49.798;10.968;2023-02-12T06:09:24;100129.25;;;6.79;62.02
49729;BME280;66333;49.798;10.968;2023-02-12T06:11:52;100120.50;;;6.81;62.00
49729;BME280;66333;49.798;10.968;2023-02-12T06:14:22;100132.69;;;6.80;62.12
49729;BME280;66333;49.798;10.968;2023-02-12T06:16:52;100127.56;;;6.78;61.82
49729;BME280;66333;49.798;10.968;2023-02-12T06:19:20;100125.88;;;6.77;62.09
49729;BME280;66333;49.798;10.968;2023-02-12T06:21:47;100132.78;;;6.78;61.97
49729;BME280;66333;49.798;10.968;2023-02-12T06:24:16;100132.03;;;6.76;61.92
49729;BME280;66333;49.798;10.968;2023-02-12T06:26:44;100138.06;;;6.77;61.89
49729;BME280;66333;49.798;10.968;2023-02-12T06:29:12;100139.00;;;6.76;61.97
49729;BME280;66333;49.798;10.968;2023-02-12T06:31:40;100133.84;;;6.74;62.07
49729;BME280;66333;49.798;10.968;2023-02-12T06:34:14;100136.44;;;6.74;62.15
49729;BME280;66333;49.798;10.968;2023-02-12T06:36:45;100134.28;;;6.67;62.52
49729;BME280;66333;49.798;10.968;2023-02-12T06:39:15;100137.94;;;6.63;63.05
49729;BME280;66333;49.798;10.968;2023-02-12T06:41:44;100144.75;;;6.65;62.69
49729;BME280;66333;49.798;10.968;2023-02-12T06:44:12;100144.47;;;6.54;63.35
49729;BME280;66333;49.798;10.968;2023-02-12T06:46:42;100145.53;;;6.67;63.10
49729;BME280;66333;49.798;10.968;2023-02-12T06:49:12;100151.19;;;6.75;63.75
49729;BME280;66333;49.798;10.968;2023-02-12T06:51:41;100153.28;;;6.85;63.57
49729;BME280;66333;49.798;10.968;2023-02-12T06:54:17;100156.91;;;6.98;63.42
49729;BME280;66333;49.798;10.968;2023-02-12T06:56:43;100161.03;;;7.02;63.82
49729;BME280;66333;49.798;10.968;2023-02-12T06:59:15;100169.63;;;7.04;63.99
49729;BME280;66333;49.798;10.968;2023-02-12T07:01:43;100171.28;;;7.05;63.75
49729;BME280;66333;49.798;10.968;2023-02-12T07:04:16;100172.78;;;7.09;64.05
49729;BME280;66333;49.798;10.968;2023-02-12T07:06:45;100174.50;;;7.10;63.80
49729;BME280;66333;49.798;10.968;2023-02-12T07:09:13;100180.63;;;7.09;63.72
49729;BME280;66333;49.798;10.968;2023-02-12T07:11:41;100184.75;;;7.13;63.86
49729;BME280;66333;49.798;10.968;2023-02-12T07:14:12;100186.53;;;7.13;64.38
49729;BME280;66333;49.798;10.968;2023-02-12T07:16:42;100179.53;;;7.13;63.77
49729;BME280;66333;49.798;10.968;2023-02-12T07:19:13;100181.03;;;7.17;63.56
49729;BME280;66333;49.798;10.968;2023-02-12T07:21:42;100185.50;;;7.15;63.73
49729;BME280;66333;49.798;10.968;2023-02-12T07:24:10;100186.44;;;7.14;63.98
49729;BME280;66333;49.798;10.968;2023-02-12T07:26:40;100188.94;;;7.16;63.53
49729;BME280;66333;49.798;10.968;2023-02-12T07:29:08;100196.03;;;7.14;63.59
49729;BME280;66333;49.798;10.968;2023-02-12T07:31:36;100193.31;;;7.15;64.04
49729;BME280;66333;49.798;10.968;2023-02-12T07:34:04;100195.00;;;7.16;63.81
49729;BME280;66333;49.798;10.968;2023-02-12T07:36:36;100193.31;;;7.15;63.75
49729;BME280;66333;49.798;10.968;2023-02-12T07:39:03;100199.47;;;7.14;63.92
49729;BME280;66333;49.798;10.968;2023-02-12T07:41:32;100200.22;;;7.16;63.98
49729;BME280;66333;49.798;10.968;2023-02-12T07:44:02;100201.91;;;7.17;64.08
49729;BME280;66333;49.798;10.968;2023-02-12T07:46:34;100204.69;;;7.14;64.07
49729;BME280;66333;49.798;10.968;2023-02-12T07:49:02;100203.84;;;7.14;64.01
49729;BME280;66333;49.798;10.968;2023-02-12T07:51:30;100205.59;;;7.13;63.96
49729;BME280;66333;49.798;10.968;2023-02-12T07:54:00;100202.06;;;7.14;63.70
49729;BME280;66333;49.798;10.968;2023-02-12T07:56:29;100209.06;;;7.14;64.05
49729;BME280;66333;49.798;10.968;2023-02-12T07:59:02;100206.34;;;7.15;63.50
49729;BME280;66333;49.798;10.968;2023-02-12T08:01:33;100201.56;;;7.23;63.22
49729;BME280;66333;49.798;10.968;2023-02-12T08:04:03;100206.47;;;7.29;63.56
49729;BME280;66333;49.798;10.968;2023-02-12T08:06:32;100207.31;;;7.30;63.77
49729;BME280;66333;49.798;10.968;2023-02-12T08:09:15;100201.44;;;7.26;63.77
49729;BME280;66333;49.798;10.968;2023-02-12T08:11:44;100208.47;;;7.24;63.94
49729;BME280;66333;49.798;10.968;2023-02-12T08:14:14;100210.50;;;7.19;63.68
49729;BME280;66333;49.798;10.968;2023-02-12T08:16:43;100211.44;;;7.18;64.12
49729;BME280;66333;49.798;10.968;2023-02-12T08:19:18;100207.09;;;7.17;63.96
49729;BME280;66333;49.798;10.968;2023-02-12T08:21:49;100213.16;;;7.18;63.69
49729;BME280;66333;49.798;10.968;2023-02-12T08:24:28;100211.44;;;7.18;63.73
49729;BME280;66333;49.798;10.968;2023-02-12T08:26:59;100214.94;;;7.17;63.89
49729;BME280;66333;49.798;10.968;2023-02-12T08:29:28;100214.19;;;7.15;63.79
49729;BME280;66333;49.798;10.968;2023-02-12T08:31:58;100215.03;;;7.16;63.72
49729;BME280;66333;49.798;10.968;2023-02-12T08:34:31;100207.28;;;7.14;63.47
49729;BME280;66333;49.798;10.968;2023-02-12T08:37:00;100206.34;;;7.15;63.97
49729;BME280;66333;49.798;10.968;2023-02-12T08:39:29;100208.22;;;7.13;63.59
49729;BME280;66333;49.798;10.968;2023-02-12T08:42:00;100212.50;;;7.14;63.58
49729;BME280;66333;49.798;10.968;2023-02-12T08:44:28;100216.88;;;7.14;63.80
49729;BME280;66333;49.798;10.968;2023-02-12T08:46:55;100214.28;;;7.14;63.76
49729;BME280;66333;49.798;10.968;2023-02-12T08:49:27;100221.25;;;7.13;63.97
49729;BME280;66333;49.798;10.968;2023-02-12T08:51:58;100213.44;;;7.13;63.77
49729;BME280;66333;49.798;10.968;2023-02-12T08:54:29;100216.03;;;7.13;63.92
49729;BME280;66333;49.798;10.968;2023-02-12T08:56:59;100220.50;;;7.11;63.69
49729;BME280;66333;49.798;10.968;2023-02-12T08:59:27;100216.97;;;7.12;64.01
49729;BME280;66333;49.798;10.968;2023-02-12T09:01:58;100212.69;;;7.11;64.02
49729;BME280;66333;49.798;10.968;2023-02-12T09:04:28;100213.44;;;7.13;63.78
49729;BME280;66333;49.798;10.968;2023-02-12T09:06:59;100212.69;;;7.11;63.76
49729;BME280;66333;49.798;10.968;2023-02-12T09:09:28;100224.78;;;7.12;64.03
49729;BME280;66333;49.798;10.968;2023-02-12T09:11:56;100219.56;;;7.12;63.72
49729;BME280;66333;49.798;10.968;2023-02-12T09:14:23;100217.88;;;7.11;63.83
49729;BME280;66333;49.798;10.968;2023-02-12T09:16:52;100223.09;;;7.11;63.84
49729;BME280;66333;49.798;10.968;2023-02-12T09:19:20;100228.31;;;7.11;63.75
49729;BME280;66333;49.798;10.968;2023-02-12T09:21:50;100221.44;;;7.10;63.96
49729;BME280;66333;49.798;10.968;2023-02-12T09:24:17;100228.31;;;7.11;63.71
49729;BME280;66333;49.798;10.968;2023-02-12T09:26:58;100230.09;;;7.11;63.73
49729;BME280;66333;49.798;10.968;2023-02-12T09:29:28;100229.25;;;7.10;63.67
49729;BME280;66333;49.798;10.968;2023-02-12T09:31:57;100224.94;;;7.09;63.94
49729;BME280;66333;49.798;10.968;2023-02-12T09:34:25;100230.13;;;7.09;63.53
49729;BME280;66333;49.798;10.968;2023-02-12T09:36:52;100226.78;;;7.07;63.90
49729;BME280;66333;49.798;10.968;2023-02-12T09:39:19;100233.66;;;7.08;63.96
49729;BME280;66333;49.798;10.968;2023-02-12T09:42:09;100233.66;;;7.08;63.80
49729;BME280;66333;49.798;10.968;2023-02-12T09:44:45;100237.06;;;7.10;63.76
49729;BME280;66333;49.798;10.968;2023-02-12T09:47:19;100234.50;;;7.08;63.90
49729;BME280;66333;49.798;10.968;2023-02-12T09:50:09;100229.38;;;7.07;63.68
49729;BME280;66333;49.798;10.968;2023-02-12T09:52:39;100237.22;;;7.07;63.79
49729;BME280;66333;49.798;10.968;2023-02-12T09:55:10;100232.00;;;7.07;63.86
49729;BME280;66333;49.798;10.968;2023-02-12T09:57:45;100244.09;;;7.08;64.19
49729;BME280;66333;49.798;10.968;2023-02-12T10:00:15;100230.00;;;7.12;63.62
49729;BME280;66333;49.798;10.968;2023-02-12T10:02:49;100232.34;;;7.17;63.50
49729;BME280;66333;49.798;10.968;2023-02-12T10:05:21;100235.03;;;7.15;64.09
49729;BME280;66333;49.798;10.968;2023-02-12T10:08:09;100237.81;;;7.12;63.88
49729;BME280;66333;49.798;10.968;2023-02-12T10:10:49;100240.56;;;7.09;64.39
49729;BME280;66333;49.798;10.968;2023-02-12T10:13:37;100243.16;;;7.09;64.25
49729;BME280;66333;49.798;10.968;2023-02-12T10:16:13;100242.41;;;7.07;64.30
49729;BME280;66333;49.798;10.968;2023-02-12T10:19:04;100239.81;;;7.07;64.19
49729;BME280;66333;49.798;10.968;2023-02-12T10:21:49;100233.84;;;7.05;64.33
49729;BME280;66333;49.798;10.968;2023-02-12T10:24:44;100233.84;;;7.05;64.36
49729;BME280;66333;49.798;10.968;2023-02-12T10:27:16;100241.66;;;7.05;64.46
49729;BME280;66333;49.798;10.968;2023-02-12T10:29:48;100240.81;;;7.04;64.27
49729;BME280;66333;49.798;10.968;2023-02-12T10:32:29;100239.97;;;7.04;64.20
49729;BME280;66333;49.798;10.968;2023-02-12T10:35:12;100239.06;;;7.05;64.31
49729;BME280;66333;49.798;10.968;2023-02-12T10:37:43;100233.94;;;7.03;64.43
49729;BME280;66333;49.798;10.968;2023-02-12T10:40:18;100237.38;;;7.04;64.57
49729;BME280;66333;49.798;10.968;2023-02-12T10:42:50;100238.31;;;7.03;64.46
49729;BME280;66333;49.798;10.968;2023-02-12T10:45:33;100233.19;;;7.01;64.32
49729;BME280;66333;49.798;10.968;2023-02-12T10:48:08;100233.19;;;7.01;64.35
49729;BME280;66333;49.798;10.968;2023-02-12T10:50:49;100237.56;;;7.01;64.55
49729;BME280;66333;49.798;10.968;2023-02-12T10:53:21;100234.03;;;7.02;64.64
49729;BME280;66333;49.798;10.968;2023-02-12T10:56:15;100232.34;;;7.01;64.50
49729;BME280;66333;49.798;10.968;2023-02-12T10:59:02;100232.69;;;7.11;64.34
49729;BME280;66333;49.798;10.968;2023-02-12T11:01:37;100225.78;;;7.10;64.06
49729;BME280;66333;49.798;10.968;2023-02-12T11:04:20;100227.47;;;7.11;64.45
49729;BME280;66333;49.798;10.968;2023-02-12T11:06:57;100220.63;;;7.08;64.58
49729;BME280;66333;49.798;10.968;2023-02-12T11:09:29;100220.72;;;7.06;64.63
49729;BME280;66333;49.798;10.968;2023-02-12T11:11:57;100224.16;;;7.07;64.71
49729;BME280;66333;49.798;10.968;2023-02-12T11:14:26;100216.53;;;7.04;64.57
49729;BME280;66333;49.798;10.968;2023-02-12T11:17:22;100209.63;;;7.03;64.78
49729;BME280;66333;49.798;10.968;2023-02-12T11:20:18;100214.84;;;7.03;64.55
49729;BME280;66333;49.798;10.968;2023-02-12T11:22:51;100217.47;;;7.03;64.54
49729;BME280;66333;49.798;10.968;2023-02-12T11:25:21;100209.63;;;7.03;64.65
49729;BME280;66333;49.798;10.968;2023-02-12T11:28:03;100207.97;;;7.02;64.63
49729;BME280;66333;49.798;10.968;2023-02-12T11:30:31;100209.63;;;7.03;64.87
49729;BME280;66333;49.798;10.968;2023-02-12T11:33:18;100214.84;;;7.03;64.36
49729;BME280;66333;49.798;10.968;2023-02-12T11:35:49;100217.47;;;7.03;64.83
49729;BME280;66333;49.798;10.968;2023-02-12T11:38:22;100200.06;;;7.03;64.65
49729;BME280;66333;49.798;10.968;2023-02-12T11:40:55;100199.22;;;7.03;64.57
49729;BME280;66333;49.798;10.968;2023-02-12T11:43:22;100205.25;;;7.03;64.52
49729;BME280;66333;49.798;10.968;2023-02-12T11:45:52;100192.31;;;7.02;64.56
49729;BME280;66333;49.798;10.968;2023-02-12T11:48:30;100191.47;;;7.01;64.65
49729;BME280;66333;49.798;10.968;2023-02-12T11:51:02;100205.25;;;7.03;64.57
49729;BME280;66333;49.798;10.968;2023-02-12T11:53:32;100197.53;;;7.02;64.61
49729;BME280;66333;49.798;10.968;2023-02-12T11:56:04;100194.00;;;7.03;64.60
49729;BME280;66333;49.798;10.968;2023-02-12T11:58:32;100193.25;;;7.01;64.70
49729;BME280;66333;49.798;10.968;2023-02-12T12:01:07;100190.63;;;7.01;64.58
49729;BME280;66333;49.798;10.968;2023-02-12T12:03:44;100195.84;;;7.01;64.75
49729;BME280;66333;49.798;10.968;2023-02-12T12:06:30;100190.63;;;7.01;64.78
49729;BME280;66333;49.798;10.968;2023-02-12T12:09:03;100183.72;;;7.00;64.86
49729;BME280;66333;49.798;10.968;2023-02-12T12:11:43;100184.66;;;6.99;64.88
49729;BME280;66333;49.798;10.968;2023-02-12T12:14:23;100182.03;;;6.99;64.79
49729;BME280;66333;49.798;10.968;2023-02-12T12:16:56;100184.66;;;6.99;64.95
49729;BME280;66333;49.798;10.968;2023-02-12T12:19:55;100183.72;;;7.00;64.95
49729;BME280;66333;49.798;10.968;2023-02-12T12:22:37;100190.63;;;7.01;64.71
49729;BME280;66333;49.798;10.968;2023-02-12T12:25:17;100190.78;;;6.98;64.62
49729;BME280;66333;49.798;10.968;2023-02-12T12:27:54;100189.09;;;6.97;65.96
49729;BME280;66333;49.798;10.968;2023-02-12T12:30:56;100186.75;;;6.92;66.56
49729;BME280;66333;49.798;10.968;2023-02-12T12:33:33;100194.50;;;6.94;66.36
49729;BME280;66333;49.798;10.968;2023-02-12T12:36:29;100187.59;;;6.93;66.51
49729;BME280;66333;49.798;10.968;2023-02-12T12:39:08;100186.75;;;6.92;66.60
49729;BME280;66333;49.798;10.968;2023-02-12T12:41:56;100188.50;;;6.92;66.20
49729;BME280;66333;49.798;10.968;2023-02-12T12:44:45;100190.22;;;6.93;66.09
49729;BME280;66333;49.798;10.968;2023-02-12T12:47:24;100189.41;;;6.91;66.40
49729;BME280;66333;49.798;10.968;2023-02-12T12:50:12;100184.22;;;6.91;66.12
49729;BME280;66333;49.798;10.968;2023-02-12T12:53:12;100181.59;;;6.91;66.07
49729;BME280;66333;49.798;10.968;2023-02-12T12:56:05;100182.38;;;6.93;65.87
49729;BME280;66333;49.798;10.968;2023-02-12T12:58:50;100184.22;;;6.91;65.94
49729;BME280;66333;49.798;10.968;2023-02-12T13:01:43;100180.69;;;6.92;66.00
49729;BME280;66333;49.798;10.968;2023-02-12T13:04:42;100182.38;;;6.93;65.70
49729;BME280;66333;49.798;10.968;2023-02-12T13:07:22;100182.38;;;6.93;65.67
49729;BME280;66333;49.798;10.968;2023-02-12T13:10:12;100184.22;;;6.91;65.62
49729;BME280;66333;49.798;10.968;2023-02-12T13:13:05;100182.44;;;6.91;65.69
49729;BME280;66333;49.798;10.968;2023-02-12T13:15:42;100177.31;;;6.90;65.70
49729;BME280;66333;49.798;10.968;2023-02-12T13:18:19;100179.94;;;6.90;65.82
49729;BME280;66333;49.798;10.968;2023-02-12T13:20:50;100186.06;;;6.89;65.71
49729;BME280;66333;49.798;10.968;2023-02-12T13:23:27;100185.13;;;6.90;65.91
49729;BME280;66333;49.798;10.968;2023-02-12T13:26:07;100182.53;;;6.90;65.58
49729;BME280;66333;49.798;10.968;2023-02-12T13:28:41;100186.91;;;6.89;65.65